Phoenix, Arizona
Traffic Map
Current Weather Conditions
Phoenix, Arizona
Scattered Clouds
Scattered Clouds
33°
Feels Like: 35°
Wind Chill: 33° Ceiling: Unl
Heat Index: 35° Visibility: 10mi
Dew Point: 19° Wind: 6mph
Humidity: 44% Direction: 80° (E)
Pressure: 29.78in Gusts: 0mph
Raw Report DataKPHX 290851Z 08005KT 10SM SCT250 33/19 A2978 RMK AO2 SLP062 T03330194 58001
Traffic Incident Summary
Active as of:
Severity:
Category:
InformationThere was an issue retrieving the traffic information for this location. Please try a different location or try again shortly.
Advertisements
Track Severe Weather on mobile